Portland, Oregon
Traffic Map
Current Weather Conditions
Portland, Oregon
Few Clouds
Few Clouds
63°
Feels Like: 63°
Wind Chill: 63° Ceiling: Unl
Heat Index: 63° Visibility: 10mi
Dew Point: 52° Wind: 7mph
Humidity: 67% Direction: 300° (WNW)
Pressure: 30.11in Gusts: 0mph
Raw Report DataKPDX 270253Z 30006KT 10SM FEW040 17/11 A3011 RMK AO2 SLP194 T01720111 56013
Traffic Incident Summary
Active as of:
Severity:
Category:
InformationThere was an issue retrieving the traffic information for this location. Please try a different location or try again shortly.
Advertisements
Track Severe Weather on mobile